sensor_id;sensor_type;location;lat;lon;timestamp;P1;P2;P0
72854;PMS7003;60991;51.278;22.550;2022-12-18T00:00:57;54.67;39.67;23.33
72854;PMS7003;60991;51.278;22.550;2022-12-18T00:02:27;52.67;39.00;24.00
72854;PMS7003;60991;51.278;22.550;2022-12-18T00:03:58;49.00;29.67;21.33
72854;PMS7003;60991;51.278;22.550;2022-12-18T00:05:29;54.00;42.25;25.75
72854;PMS7003;60991;51.278;22.550;2022-12-18T00:06:59;57.00;42.67;19.00
72854;PMS7003;60991;51.278;22.550;2022-12-18T00:08:29;55.33;39.00;21.00
72854;PMS7003;60991;51.278;22.550;2022-12-18T00:10:00;54.50;44.50;27.75
72854;PMS7003;60991;51.278;22.550;2022-12-18T00:11:30;52.67;43.67;23.33
72854;PMS7003;60991;51.278;22.550;2022-12-18T00:13:01;43.25;35.75;21.25
72854;PMS7003;60991;51.278;22.550;2022-12-18T00:14:32;49.33;38.00;24.00
72854;PMS7003;60991;51.278;22.550;2022-12-18T00:16:03;38.75;30.00;18.25
72854;PMS7003;60991;51.278;22.550;2022-12-18T00:17:34;56.50;37.75;23.75
72854;PMS7003;60991;51.278;22.550;2022-12-18T00:19:05;56.67;39.67;23.33
72854;PMS7003;60991;51.278;22.550;2022-12-18T00:20:37;54.00;34.50;23.50
72854;PMS7003;60991;51.278;22.550;2022-12-18T00:22:08;51.50;41.00;22.00
72854;PMS7003;60991;51.278;22.550;2022-12-18T00:23:40;52.00;39.67;21.00
72854;PMS7003;60991;51.278;22.550;2022-12-18T00:25:11;49.00;36.50;19.00
72854;PMS7003;60991;51.278;22.550;2022-12-18T00:26:41;35.67;35.00;21.00
72854;PMS7003;60991;51.278;22.550;2022-12-18T00:28:11;60.67;45.00;22.00
72854;PMS7003;60991;51.278;22.550;2022-12-18T00:29:41;47.67;43.00;18.67
72854;PMS7003;60991;51.278;22.550;2022-12-18T00:31:12;38.00;33.67;18.67
72854;PMS7003;60991;51.278;22.550;2022-12-18T00:32:48;43.75;32.75;22.00
72854;PMS7003;60991;51.278;22.550;2022-12-18T00:34:18;47.00;37.00;23.33
72854;PMS7003;60991;51.278;22.550;2022-12-18T00:35:48;52.33;39.00;23.33
72854;PMS7003;60991;51.278;22.550;2022-12-18T00:37:19;51.00;38.00;23.00
72854;PMS7003;60991;51.278;22.550;2022-12-18T00:38:49;34.33;30.67;22.67
72854;PMS7003;60991;51.278;22.550;2022-12-18T00:40:20;47.00;37.00;18.75
72854;PMS7003;60991;51.278;22.550;2022-12-18T00:41:50;45.33;34.00;20.67
72854;PMS7003;60991;51.278;22.550;2022-12-18T00:43:20;33.33;27.67;18.00
72854;PMS7003;60991;51.278;22.550;2022-12-18T00:44:50;37.33;30.00;18.00
72854;PMS7003;60991;51.278;22.550;2022-12-18T00:46:20;42.67;32.33;19.67
72854;PMS7003;60991;51.278;22.550;2022-12-18T00:47:51;39.33;33.33;19.67
72854;PMS7003;60991;51.278;22.550;2022-12-18T00:49:21;37.75;32.50;18.25
72854;PMS7003;60991;51.278;22.550;2022-12-18T00:50:51;41.50;27.00;14.50
72854;PMS7003;60991;51.278;22.550;2022-12-18T00:52:21;41.50;33.50;22.00
72854;PMS7003;60991;51.278;22.550;2022-12-18T00:53:52;45.33;36.00;17.33
72854;PMS7003;60991;51.278;22.550;2022-12-18T00:55:22;50.75;37.25;19.00
72854;PMS7003;60991;51.278;22.550;2022-12-18T00:56:52;36.33;33.00;18.00
72854;PMS7003;60991;51.278;22.550;2022-12-18T00:58:22;50.67;37.33;19.00
72854;PMS7003;60991;51.278;22.550;2022-12-18T00:59:53;42.33;27.67;18.33
72854;PMS7003;60991;51.278;22.550;2022-12-18T01:01:23;49.67;41.67;22.00
72854;PMS7003;60991;51.278;22.550;2022-12-18T01:02:53;39.67;33.33;21.67
72854;PMS7003;60991;51.278;22.550;2022-12-18T01:04:23;45.33;38.00;16.33
72854;PMS7003;60991;51.278;22.550;2022-12-18T01:05:54;35.33;33.00;20.33
72854;PMS7003;60991;51.278;22.550;2022-12-18T01:07:24;32.33;29.67;18.33
72854;PMS7003;60991;51.278;22.550;2022-12-18T01:08:54;32.33;27.33;18.67
72854;PMS7003;60991;51.278;22.550;2022-12-18T01:10:25;50.75;33.75;18.75
72854;PMS7003;60991;51.278;22.550;2022-12-18T01:11:55;27.67;24.33;16.33
72854;PMS7003;60991;51.278;22.550;2022-12-18T01:13:25;37.67;28.00;17.33
72854;PMS7003;60991;51.278;22.550;2022-12-18T01:14:56;35.33;25.67;18.00
72854;PMS7003;60991;51.278;22.550;2022-12-18T01:16:26;32.00;24.75;16.00
72854;PMS7003;60991;51.278;22.550;2022-12-18T01:17:56;29.33;26.33;13.67
72854;PMS7003;60991;51.278;22.550;2022-12-18T01:19:26;32.33;21.67;16.00
72854;PMS7003;60991;51.278;22.550;2022-12-18T01:20:57;31.67;22.67;13.67
72854;PMS7003;60991;51.278;22.550;2022-12-18T01:22:27;30.25;25.75;17.00
72854;PMS7003;60991;51.278;22.550;2022-12-18T01:23:57;37.00;25.67;13.67
72854;PMS7003;60991;51.278;22.550;2022-12-18T01:25:27;40.00;21.33;12.33
72854;PMS7003;60991;51.278;22.550;2022-12-18T01:26:57;35.67;29.67;17.67
72854;PMS7003;60991;51.278;22.550;2022-12-18T01:28:28;43.67;30.33;15.00
72854;PMS7003;60991;51.278;22.550;2022-12-18T01:29:58;24.67;20.33;13.00
72854;PMS7003;60991;51.278;22.550;2022-12-18T01:31:29;35.00;27.33;18.00
72854;PMS7003;60991;51.278;22.550;2022-12-18T01:33:01;47.00;31.75;15.75
72854;PMS7003;60991;51.278;22.550;2022-12-18T01:34:37;32.25;27.25;19.00
72854;PMS7003;60991;51.278;22.550;2022-12-18T01:36:11;30.75;25.25;12.75
72854;PMS7003;60991;51.278;22.550;2022-12-18T01:37:44;29.25;24.25;14.50
72854;PMS7003;60991;51.278;22.550;2022-12-18T01:39:15;30.33;23.67;13.67
72854;PMS7003;60991;51.278;22.550;2022-12-18T01:40:45;24.00;22.00;15.67
72854;PMS7003;60991;51.278;22.550;2022-12-18T01:42:15;46.00;29.33;15.33
72854;PMS7003;60991;51.278;22.550;2022-12-18T01:43:53;37.75;27.00;15.75
72854;PMS7003;60991;51.278;22.550;2022-12-18T01:45:29;36.75;29.75;15.00
72854;PMS7003;60991;51.278;22.550;2022-12-18T01:47:01;36.50;25.00;15.50
72854;PMS7003;60991;51.278;22.550;2022-12-18T01:48:31;29.67;25.33;13.00
72854;PMS7003;60991;51.278;22.550;2022-12-18T01:51:44;39.25;30.00;15.25
72854;PMS7003;60991;51.278;22.550;2022-12-18T01:53:15;35.67;30.67;15.67
72854;PMS7003;60991;51.278;22.550;2022-12-18T01:54:48;28.50;25.50;14.00
72854;PMS7003;60991;51.278;22.550;2022-12-18T01:56:21;32.50;23.50;15.00
72854;PMS7003;60991;51.278;22.550;2022-12-18T01:57:52;37.50;27.50;18.75
72854;PMS7003;60991;51.278;22.550;2022-12-18T01:59:24;34.50;29.25;18.25
72854;PMS7003;60991;51.278;22.550;2022-12-18T02:00:55;30.00;22.00;16.67
72854;PMS7003;60991;51.278;22.550;2022-12-18T02:02:26;35.00;22.50;15.25
72854;PMS7003;60991;51.278;22.550;2022-12-18T02:07:44;43.00;24.50;13.00
72854;PMS7003;60991;51.278;22.550;2022-12-18T02:09:34;26.25;21.50;13.25
72854;PMS7003;60991;51.278;22.550;2022-12-18T02:11:18;31.00;23.25;15.25
72854;PMS7003;60991;51.278;22.550;2022-12-18T02:14:55;30.25;21.75;13.00
72854;PMS7003;60991;51.278;22.550;2022-12-18T02:18:36;33.75;26.00;13.00
72854;PMS7003;60991;51.278;22.550;2022-12-18T02:24:13;44.50;26.00;14.50
72854;PMS7003;60991;51.278;22.550;2022-12-18T02:27:50;41.25;26.25;17.25
72854;PMS7003;60991;51.278;22.550;2022-12-18T02:30:53;42.50;30.75;15.00
72854;PMS7003;60991;51.278;22.550;2022-12-18T02:32:30;39.00;27.25;17.50
72854;PMS7003;60991;51.278;22.550;2022-12-18T02:34:05;31.00;21.75;11.00
72854;PMS7003;60991;51.278;22.550;2022-12-18T02:35:38;25.25;13.50;11.00
72854;PMS7003;60991;51.278;22.550;2022-12-18T02:37:12;36.75;23.75;11.75
72854;PMS7003;60991;51.278;22.550;2022-12-18T02:38:46;30.25;28.50;19.00
72854;PMS7003;60991;51.278;22.550;2022-12-18T02:40:17;24.50;21.25;13.50
72854;PMS7003;60991;51.278;22.550;2022-12-18T02:41:50;27.75;21.25;11.50
72854;PMS7003;60991;51.278;22.550;2022-12-18T02:43:21;18.50;13.00;9.25
72854;PMS7003;60991;51.278;22.550;2022-12-18T02:44:51;29.33;21.67;13.00
72854;PMS7003;60991;51.278;22.550;2022-12-18T02:47:58;25.75;19.50;15.00
72854;PMS7003;60991;51.278;22.550;2022-12-18T02:49:36;27.33;21.00;13.00
72854;PMS7003;60991;51.278;22.550;2022-12-18T02:56:35;30.50;23.50;13.00
72854;PMS7003;60991;51.278;22.550;2022-12-18T03:02:02;25.75;15.50;10.50
72854;PMS7003;60991;51.278;22.550;2022-12-18T03:03:55;24.50;22.00;12.50
72854;PMS7003;60991;51.278;22.550;2022-12-18T03:05:32;24.00;17.00;11.00
72854;PMS7003;60991;51.278;22.550;2022-12-18T03:07:08;40.25;21.75;13.00
72854;PMS7003;60991;51.278;22.550;2022-12-18T03:08:43;31.25;24.75;16.50
72854;PMS7003;60991;51.278;22.550;2022-12-18T03:10:18;26.25;19.00;13.00
72854;PMS7003;60991;51.278;22.550;2022-12-18T03:11:54;19.50;16.50;13.25
72854;PMS7003;60991;51.278;22.550;2022-12-18T03:13:49;23.75;14.75;10.50
72854;PMS7003;60991;51.278;22.550;2022-12-18T03:15:30;28.00;24.00;12.50
72854;PMS7003;60991;51.278;22.550;2022-12-18T03:17:17;15.75;12.50;6.00
72854;PMS7003;60991;51.278;22.550;2022-12-18T03:18:54;22.75;17.00;10.00
72854;PMS7003;60991;51.278;22.550;2022-12-18T03:20:29;15.50;14.00;10.00
72854;PMS7003;60991;51.278;22.550;2022-12-18T03:22:02;26.75;19.00;11.25
72854;PMS7003;60991;51.278;22.550;2022-12-18T03:23:39;22.00;18.75;11.00
72854;PMS7003;60991;51.278;22.550;2022-12-18T03:25:13;18.50;11.25;6.50
72854;PMS7003;60991;51.278;22.550;2022-12-18T03:26:47;25.00;18.00;10.00
72854;PMS7003;60991;51.278;22.550;2022-12-18T03:28:28;24.75;19.50;13.00
72854;PMS7003;60991;51.278;22.550;2022-12-18T03:30:04;21.00;18.75;14.00
72854;PMS7003;60991;51.278;22.550;2022-12-18T03:31:39;13.00;11.25;10.00
72854;PMS7003;60991;51.278;22.550;2022-12-18T03:33:15;30.50;23.00;11.50
72854;PMS7003;60991;51.278;22.550;2022-12-18T03:34:51;24.00;18.25;9.50
72854;PMS7003;60991;51.278;22.550;2022-12-18T03:36:26;23.25;18.00;12.75
72854;PMS7003;60991;51.278;22.550;2022-12-18T03:37:57;27.25;23.00;12.50
72854;PMS7003;60991;51.278;22.550;2022-12-18T03:39:27;24.75;22.00;14.00
72854;PMS7003;60991;51.278;22.550;2022-12-18T03:41:03;30.67;21.33;13.33
72854;PMS7003;60991;51.278;22.550;2022-12-18T03:42:50;28.50;24.00;14.50
72854;PMS7003;60991;51.278;22.550;2022-12-18T03:44:28;36.00;32.00;18.25
72854;PMS7003;60991;51.278;22.550;2022-12-18T03:46:06;31.50;28.75;15.00
72854;PMS7003;60991;51.278;22.550;2022-12-18T03:48:04;37.00;31.00;16.50
72854;PMS7003;60991;51.278;22.550;2022-12-18T03:49:50;32.00;25.50;15.25
72854;PMS7003;60991;51.278;22.550;2022-12-18T03:51:43;43.25;25.00;15.50
72854;PMS7003;60991;51.278;22.550;2022-12-18T03:54:51;34.33;26.67;15.67
72854;PMS7003;60991;51.278;22.550;2022-12-18T03:56:26;38.00;27.25;17.00
72854;PMS7003;60991;51.278;22.550;2022-12-18T03:58:01;25.75;24.50;14.00
72854;PMS7003;60991;51.278;22.550;2022-12-18T03:59:33;36.50;29.50;18.25
72854;PMS7003;60991;51.278;22.550;2022-12-18T04:01:06;28.25;23.00;16.00
72854;PMS7003;60991;51.278;22.550;2022-12-18T04:02:40;35.75;24.00;11.50
72854;PMS7003;60991;51.278;22.550;2022-12-18T04:04:14;41.50;30.50;18.50
72854;PMS7003;60991;51.278;22.550;2022-12-18T04:05:47;38.50;27.50;15.50
72854;PMS7003;60991;51.278;22.550;2022-12-18T04:07:21;31.25;22.00;15.75
72854;PMS7003;60991;51.278;22.550;2022-12-18T04:08:52;22.75;21.25;13.00
72854;PMS7003;60991;51.278;22.550;2022-12-18T04:10:23;29.50;21.75;12.75
72854;PMS7003;60991;51.278;22.550;2022-12-18T04:11:53;28.00;24.33;14.67
72854;PMS7003;60991;51.278;22.550;2022-12-18T04:13:24;25.33;16.00;10.00
72854;PMS7003;60991;51.278;22.550;2022-12-18T04:14:58;22.25;16.00;13.00
72854;PMS7003;60991;51.278;22.550;2022-12-18T04:16:29;25.33;16.00;11.33
72854;PMS7003;60991;51.278;22.550;2022-12-18T04:17:59;23.67;18.33;11.33
72854;PMS7003;60991;51.278;22.550;2022-12-18T04:19:29;21.33;13.67;10.00
72854;PMS7003;60991;51.278;22.550;2022-12-18T04:20:59;26.00;22.67;14.33
72854;PMS7003;60991;51.278;22.550;2022-12-18T04:22:29;22.67;16.33;13.67
72854;PMS7003;60991;51.278;22.550;2022-12-18T04:24:00;32.00;19.67;10.67
72854;PMS7003;60991;51.278;22.550;2022-12-18T04:25:30;18.25;15.25;10.50
72854;PMS7003;60991;51.278;22.550;2022-12-18T04:27:00;12.33;6.33;3.67
72854;PMS7003;60991;51.278;22.550;2022-12-18T04:28:30;19.33;13.67;10.00
72854;PMS7003;60991;51.278;22.550;2022-12-18T04:30:01;22.33;14.00;9.67
72854;PMS7003;60991;51.278;22.550;2022-12-18T04:31:31;16.50;13.50;8.50
72854;PMS7003;60991;51.278;22.550;2022-12-18T04:33:01;17.67;13.00;9.00
72854;PMS7003;60991;51.278;22.550;2022-12-18T04:34:32;21.25;11.00;7.50
72854;PMS7003;60991;51.278;22.550;2022-12-18T04:36:04;17.25;17.00;11.00
72854;PMS7003;60991;51.278;22.550;2022-12-18T04:37:35;19.25;17.00;12.50
72854;PMS7003;60991;51.278;22.550;2022-12-18T04:39:05;16.00;12.33;7.67
72854;PMS7003;60991;51.278;22.550;2022-12-18T04:40:36;21.00;15.00;9.67
72854;PMS7003;60991;51.278;22.550;2022-12-18T04:42:07;21.25;18.50;12.50
72854;PMS7003;60991;51.278;22.550;2022-12-18T04:43:37;26.33;11.33;7.00
72854;PMS7003;60991;51.278;22.550;2022-12-18T04:45:07;13.33;10.67;6.67
72854;PMS7003;60991;51.278;22.550;2022-12-18T04:46:38;15.25;12.00;8.50
72854;PMS7003;60991;51.278;22.550;2022-12-18T04:48:08;12.67;12.00;9.00
72854;PMS7003;60991;51.278;22.550;2022-12-18T04:49:38;19.75;13.50;9.00
72854;PMS7003;60991;51.278;22.550;2022-12-18T04:51:09;21.00;15.33;12.33
72854;PMS7003;60991;51.278;22.550;2022-12-18T04:52:39;16.67;13.67;10.00
72854;PMS7003;60991;51.278;22.550;2022-12-18T04:54:09;20.33;16.00;12.00
72854;PMS7003;60991;51.278;22.550;2022-12-18T04:55:39;24.33;15.33;9.33
72854;PMS7003;60991;51.278;22.550;2022-12-18T04:57:10;19.00;15.33;9.33
72854;PMS7003;60991;51.278;22.550;2022-12-18T04:58:40;20.33;18.00;10.67
72854;PMS7003;60991;51.278;22.550;2022-12-18T05:00:13;19.50;14.00;9.50
72854;PMS7003;60991;51.278;22.550;2022-12-18T05:01:44;22.00;13.00;9.50
72854;PMS7003;60991;51.278;22.550;2022-12-18T05:03:14;14.67;12.67;9.00
72854;PMS7003;60991;51.278;22.550;2022-12-18T05:04:44;11.33;9.33;6.00
72854;PMS7003;60991;51.278;22.550;2022-12-18T05:06:14;19.00;15.00;9.00
72854;PMS7003;60991;51.278;22.550;2022-12-18T05:07:45;20.67;17.33;10.00
72854;PMS7003;60991;51.278;22.550;2022-12-18T05:09:15;26.67;16.67;10.67
72854;PMS7003;60991;51.278;22.550;2022-12-18T05:10:45;21.67;18.00;10.00
72854;PMS7003;60991;51.278;22.550;2022-12-18T05:12:16;17.00;15.75;10.00
72854;PMS7003;60991;51.278;22.550;2022-12-18T05:13:46;16.67;14.33;10.00
72854;PMS7003;60991;51.278;22.550;2022-12-18T05:15:16;13.33;11.33;9.00
72854;PMS7003;60991;51.278;22.550;2022-12-18T05:16:46;16.00;9.67;6.00
72854;PMS7003;60991;51.278;22.550;2022-12-18T05:18:16;14.67;9.33;5.33
72854;PMS7003;60991;51.278;22.550;2022-12-18T05:19:47;13.00;10.00;6.33
72854;PMS7003;60991;51.278;22.550;2022-12-18T05:21:17;18.67;10.00;6.00
72854;PMS7003;60991;51.278;22.550;2022-12-18T05:22:47;12.67;10.00;4.00
72854;PMS7003;60991;51.278;22.550;2022-12-18T05:24:17;15.00;12.67;6.00
72854;PMS7003;60991;51.278;22.550;2022-12-18T05:25:50;19.67;11.33;7.00
72854;PMS7003;60991;51.278;22.550;2022-12-18T05:27:23;22.50;17.00;11.00
72854;PMS7003;60991;51.278;22.550;2022-12-18T05:28:56;18.67;13.00;8.33
72854;PMS7003;60991;51.278;22.550;2022-12-18T05:30:26;12.75;12.50;10.50
72854;PMS7003;60991;51.278;22.550;2022-12-18T05:31:57;18.67;13.00;7.00
72854;PMS7003;60991;51.278;22.550;2022-12-18T05:33:28;16.67;14.00;10.00
72854;PMS7003;60991;51.278;22.550;2022-12-18T05:35:00;22.25;12.25;6.75
72854;PMS7003;60991;51.278;22.550;2022-12-18T05:36:30;20.00;13.00;10.67
72854;PMS7003;60991;51.278;22.550;2022-12-18T05:38:00;16.33;10.00;7.67
72854;PMS7003;60991;51.278;22.550;2022-12-18T05:39:31;13.67;10.67;7.67
72854;PMS7003;60991;51.278;22.550;2022-12-18T05:41:01;16.00;6.50;1.50
72854;PMS7003;60991;51.278;22.550;2022-12-18T05:42:32;13.50;12.00;7.00
72854;PMS7003;60991;51.278;22.550;2022-12-18T05:44:02;13.00;13.00;7.00
72854;PMS7003;60991;51.278;22.550;2022-12-18T05:45:36;19.25;12.75;7.00
72854;PMS7003;60991;51.278;22.550;2022-12-18T05:47:07;15.25;10.75;6.25
72854;PMS7003;60991;51.278;22.550;2022-12-18T05:48:37;16.33;12.67;9.00
72854;PMS7003;60991;51.278;22.550;2022-12-18T05:50:07;24.00;13.67;10.67
72854;PMS7003;60991;51.278;22.550;2022-12-18T05:51:37;15.25;12.25;8.50
72854;PMS7003;60991;51.278;22.550;2022-12-18T05:53:08;17.00;16.00;8.33
72854;PMS7003;60991;51.278;22.550;2022-12-18T05:54:38;18.50;12.75;7.50
72854;PMS7003;60991;51.278;22.550;2022-12-18T05:56:13;19.67;10.00;9.33
72854;PMS7003;60991;51.278;22.550;2022-12-18T05:57:45;19.50;15.25;9.00
72854;PMS7003;60991;51.278;22.550;2022-12-18T05:59:15;22.00;19.67;11.33
72854;PMS7003;60991;51.278;22.550;2022-12-18T06:00:46;17.67;12.00;9.33
72854;PMS7003;60991;51.278;22.550;2022-12-18T06:02:16;20.00;12.00;9.00
72854;PMS7003;60991;51.278;22.550;2022-12-18T06:03:46;20.33;16.00;10.00
72854;PMS7003;60991;51.278;22.550;2022-12-18T06:05:16;23.00;13.00;9.00
72854;PMS7003;60991;51.278;22.550;2022-12-18T06:06:47;23.33;18.00;11.33
72854;PMS7003;60991;51.278;22.550;2022-12-18T06:08:17;19.67;13.67;9.00
72854;PMS7003;60991;51.278;22.550;2022-12-18T06:09:47;27.33;15.00;10.00
72854;PMS7003;60991;51.278;22.550;2022-12-18T06:11:19;16.67;15.67;10.00
72854;PMS7003;60991;51.278;22.550;2022-12-18T06:12:51;14.50;12.25;7.50
72854;PMS7003;60991;51.278;22.550;2022-12-18T06:14:21;24.00;15.33;9.33
72854;PMS7003;60991;51.278;22.550;2022-12-18T06:15:52;20.67;15.33;9.00
72854;PMS7003;60991;51.278;22.550;2022-12-18T06:17:22;12.00;9.67;4.00
72854;PMS7003;60991;51.278;22.550;2022-12-18T06:18:52;24.33;15.33;10.67
72854;PMS7003;60991;51.278;22.550;2022-12-18T06:20:22;15.67;9.33;6.00
72854;PMS7003;60991;51.278;22.550;2022-12-18T06:21:53;16.25;12.00;7.50
72854;PMS7003;60991;51.278;22.550;2022-12-18T06:23:23;9.67;8.67;6.67
72854;PMS7003;60991;51.278;22.550;2022-12-18T06:24:53;11.67;10.00;7.67
72854;PMS7003;60991;51.278;22.550;2022-12-18T06:26:23;17.67;13.00;9.67
72854;PMS7003;60991;51.278;22.550;2022-12-18T06:27:54;11.00;8.00;5.00
72854;PMS7003;60991;51.278;22.550;2022-12-18T06:29:24;15.67;10.00;9.00
72854;PMS7003;60991;51.278;22.550;2022-12-18T06:30:54;19.67;12.33;7.00
72854;PMS7003;60991;51.278;22.550;2022-12-18T06:32:25;15.33;12.33;9.67
72854;PMS7003;60991;51.278;22.550;2022-12-18T06:33:55;17.00;13.25;9.00
72854;PMS7003;60991;51.278;22.550;2022-12-18T06:35:25;22.67;15.00;10.00
72854;PMS7003;60991;51.278;22.550;2022-12-18T06:36:56;19.67;14.67;12.33
72854;PMS7003;60991;51.278;22.550;2022-12-18T06:38:26;15.67;12.67;9.00
72854;PMS7003;60991;51.278;22.550;2022-12-18T06:39:56;17.33;13.00;9.67
72854;PMS7003;60991;51.278;22.550;2022-12-18T06:41:26;14.67;13.00;10.00
72854;PMS7003;60991;51.278;22.550;2022-12-18T06:42:56;12.50;8.25;3.00
72854;PMS7003;60991;51.278;22.550;2022-12-18T06:44:27;16.25;15.50;9.75
72854;PMS7003;60991;51.278;22.550;2022-12-18T06:45:58;13.33;11.33;8.33
72854;PMS7003;60991;51.278;22.550;2022-12-18T06:47:29;13.50;10.00;9.00
72854;PMS7003;60991;51.278;22.550;2022-12-18T06:49:00;18.00;14.33;10.00
72854;PMS7003;60991;51.278;22.550;2022-12-18T06:50:30;18.00;15.67;6.33
72854;PMS7003;60991;51.278;22.550;2022-12-18T06:52:00;16.00;12.33;9.67
72854;PMS7003;60991;51.278;22.550;2022-12-18T06:53:31;24.50;18.25;10.00
72854;PMS7003;60991;51.278;22.550;2022-12-18T06:55:02;13.25;13.25;9.00
72854;PMS7003;60991;51.278;22.550;2022-12-18T06:56:33;32.75;17.00;11.00
72854;PMS7003;60991;51.278;22.550;2022-12-18T06:58:04;24.75;18.00;9.00
72854;PMS7003;60991;51.278;22.550;2022-12-18T06:59:34;15.00;12.33;6.67
72854;PMS7003;60991;51.278;22.550;2022-12-18T07:01:04;19.67;12.00;9.00
72854;PMS7003;60991;51.278;22.550;2022-12-18T07:02:37;17.00;15.00;8.00
72854;PMS7003;60991;51.278;22.550;2022-12-18T07:04:07;16.67;14.33;9.00
72854;PMS7003;60991;51.278;22.550;2022-12-18T07:05:39;15.00;12.00;6.00
72854;PMS7003;60991;51.278;22.550;2022-12-18T07:07:10;24.00;14.50;9.00
72854;PMS7003;60991;51.278;22.550;2022-12-18T07:08:40;20.67;14.33;10.00
72854;PMS7003;60991;51.278;22.550;2022-12-18T07:10:10;30.00;17.33;12.33
72854;PMS7003;60991;51.278;22.550;2022-12-18T07:11:41;11.67;10.00;9.00
72854;PMS7003;60991;51.278;22.550;2022-12-18T07:13:11;24.67;13.00;10.00
72854;PMS7003;60991;51.278;22.550;2022-12-18T07:14:41;21.00;15.00;12.00
72854;PMS7003;60991;51.278;22.550;2022-12-18T07:16:12;18.00;15.00;6.67
72854;PMS7003;60991;51.278;22.550;2022-12-18T07:17:47;19.50;15.75;10.50
72854;PMS7003;60991;51.278;22.550;2022-12-18T07:19:17;20.33;15.67;11.33
72854;PMS7003;60991;51.278;22.550;2022-12-18T07:20:48;13.33;10.67;8.33
72854;PMS7003;60991;51.278;22.550;2022-12-18T07:22:18;17.33;12.67;9.67
72854;PMS7003;60991;51.278;22.550;2022-12-18T07:23:48;24.33;18.33;12.00
72854;PMS7003;60991;51.278;22.550;2022-12-18T07:25:18;28.33;18.33;12.00
72854;PMS7003;60991;51.278;22.550;2022-12-18T07:26:48;18.67;12.67;9.67
72854;PMS7003;60991;51.278;22.550;2022-12-18T07:28:19;21.67;15.67;10.00
72854;PMS7003;60991;51.278;22.550;2022-12-18T07:29:49;18.33;15.00;10.00
72854;PMS7003;60991;51.278;22.550;2022-12-18T07:31:20;19.67;18.33;10.00
72854;PMS7003;60991;51.278;22.550;2022-12-18T07:32:51;25.25;17.00;12.00
72854;PMS7003;60991;51.278;22.550;2022-12-18T07:34:21;25.67;18.33;12.00
72854;PMS7003;60991;51.278;22.550;2022-12-18T07:35:51;26.33;16.00;12.00
72854;PMS7003;60991;51.278;22.550;2022-12-18T07:37:22;19.33;17.33;12.00
72854;PMS7003;60991;51.278;22.550;2022-12-18T07:38:52;25.67;17.67;12.00
72854;PMS7003;60991;51.278;22.550;2022-12-18T07:40:22;29.00;18.00;11.00
72854;PMS7003;60991;51.278;22.550;2022-12-18T07:41:52;25.67;21.33;12.00
72854;PMS7003;60991;51.278;22.550;2022-12-18T07:43:23;22.33;17.67;12.67
72854;PMS7003;60991;51.278;22.550;2022-12-18T07:44:53;26.75;22.00;10.00
72854;PMS7003;60991;51.278;22.550;2022-12-18T07:46:23;22.00;18.67;10.00
72854;PMS7003;60991;51.278;22.550;2022-12-18T07:47:53;26.67;19.67;12.00
72854;PMS7003;60991;51.278;22.550;2022-12-18T07:49:24;23.00;12.00;5.00
72854;PMS7003;60991;51.278;22.550;2022-12-18T07:50:57;21.67;17.67;10.00
72854;PMS7003;60991;51.278;22.550;2022-12-18T07:52:32;24.00;20.00;13.00
72854;PMS7003;60991;51.278;22.550;2022-12-18T07:54:02;22.67;21.67;12.67
72854;PMS7003;60991;51.278;22.550;2022-12-18T07:55:33;17.25;13.00;9.25
72854;PMS7003;60991;51.278;22.550;2022-12-18T07:57:03;25.00;19.00;13.00
72854;PMS7003;60991;51.278;22.550;2022-12-18T07:58:34;27.33;15.00;13.33
72854;PMS7003;60991;51.278;22.550;2022-12-18T08:00:05;31.50;23.00;12.50
72854;PMS7003;60991;51.278;22.550;2022-12-18T08:01:35;25.50;18.75;12.50
72854;PMS7003;60991;51.278;22.550;2022-12-18T08:03:06;27.33;25.00;12.00
72854;PMS7003;60991;51.278;22.550;2022-12-18T08:04:36;23.00;18.33;12.67
72854;PMS7003;60991;51.278;22.550;2022-12-18T08:06:07;16.67;16.00;13.00
72854;PMS7003;60991;51.278;22.550;2022-12-18T08:07:39;23.75;17.00;9.50
72854;PMS7003;60991;51.278;22.550;2022-12-18T08:09:09;33.25;18.50;12.75
72854;PMS7003;60991;51.278;22.550;2022-12-18T08:10:40;26.00;20.00;13.00
72854;PMS7003;60991;51.278;22.550;2022-12-18T08:12:10;22.00;12.00;8.33
72854;PMS7003;60991;51.278;22.550;2022-12-18T08:13:40;25.67;13.67;9.33
72854;PMS7003;60991;51.278;22.550;2022-12-18T08:15:10;24.00;18.00;11.33
72854;PMS7003;60991;51.278;22.550;2022-12-18T08:16:40;26.75;20.75;9.25
72854;PMS7003;60991;51.278;22.550;2022-12-18T08:18:11;27.67;14.67;11.33
72854;PMS7003;60991;51.278;22.550;2022-12-18T08:19:41;16.00;14.33;10.00
72854;PMS7003;60991;51.278;22.550;2022-12-18T08:21:12;13.00;12.00;7.67
72854;PMS7003;60991;51.278;22.550;2022-12-18T08:22:46;20.50;14.00;9.50
72854;PMS7003;60991;51.278;22.550;2022-12-18T08:24:17;18.67;14.33;10.00
72854;PMS7003;60991;51.278;22.550;2022-12-18T08:25:47;19.67;15.00;9.67
72854;PMS7003;60991;51.278;22.550;2022-12-18T08:27:17;22.67;20.33;12.00
72854;PMS7003;60991;51.278;22.550;2022-12-18T08:28:48;18.33;14.33;9.00
72854;PMS7003;60991;51.278;22.550;2022-12-18T08:30:19;24.25;16.25;12.00
72854;PMS7003;60991;51.278;22.550;2022-12-18T08:31:49;23.33;14.33;9.67
72854;PMS7003;60991;51.278;22.550;2022-12-18T08:33:19;23.67;19.67;15.00
72854;PMS7003;60991;51.278;22.550;2022-12-18T08:34:49;24.00;15.00;10.00
72854;PMS7003;60991;51.278;22.550;2022-12-18T08:36:19;30.33;21.00;13.00
72854;PMS7003;60991;51.278;22.550;2022-12-18T08:37:51;27.25;20.50;12.25
72854;PMS7003;60991;51.278;22.550;2022-12-18T08:39:21;24.67;21.67;13.00
72854;PMS7003;60991;51.278;22.550;2022-12-18T08:41:04;22.67;17.33;12.00
72854;PMS7003;60991;51.278;22.550;2022-12-18T08:42:36;26.00;20.00;12.00
72854;PMS7003;60991;51.278;22.550;2022-12-18T08:44:07;26.33;22.00;14.33
72854;PMS7003;60991;51.278;22.550;2022-12-18T08:45:37;26.75;20.00;10.50
72854;PMS7003;60991;51.278;22.550;2022-12-18T08:47:07;23.00;20.67;14.33
72854;PMS7003;60991;51.278;22.550;2022-12-18T08:48:38;24.67;13.67;9.00
72854;PMS7003;60991;51.278;22.550;2022-12-18T08:50:09;18.33;12.67;9.33
72854;PMS7003;60991;51.278;22.550;2022-12-18T08:51:39;23.25;17.25;10.00
72854;PMS7003;60991;51.278;22.550;2022-12-18T08:53:10;30.00;21.75;14.00
72854;PMS7003;60991;51.278;22.550;2022-12-18T08:54:40;10.67;7.00;1.00
72854;PMS7003;60991;51.278;22.550;2022-12-18T08:56:10;16.00;10.00;7.67
72854;PMS7003;60991;51.278;22.550;2022-12-18T08:57:41;29.25;20.25;14.25
72854;PMS7003;60991;51.278;22.550;2022-12-18T08:59:12;22.25;18.50;12.25
72854;PMS7003;60991;51.278;22.550;2022-12-18T09:00:42;18.00;14.33;10.00